sensor_id;sensor_type;location;lat;lon;timestamp;pressure;altitude;pressure_sealevel;temperature;humidity
39823;BME280;25499;53.958;10.970;2023-10-09T06:04:55;101516.75;;;8.34;100.00
39823;BME280;25499;53.958;10.970;2023-10-09T06:07:23;101519.50;;;8.42;100.00
39823;BME280;25499;53.958;10.970;2023-10-09T06:10:07;101520.41;;;8.44;100.00
39823;BME280;25499;53.958;10.970;2023-10-09T06:12:45;101523.97;;;8.49;100.00
39823;BME280;25499;53.958;10.970;2023-10-09T06:15:21;101515.47;;;8.58;100.00
39823;BME280;25499;53.958;10.970;2023-10-09T06:18:02;101517.25;;;8.62;100.00
39823;BME280;25499;53.958;10.970;2023-10-09T06:20:52;101519.97;;;8.68;100.00
39823;BME280;25499;53.958;10.970;2023-10-09T06:23:55;101512.28;;;8.74;100.00
39823;BME280;25499;53.958;10.970;2023-10-09T06:26:40;101521.81;;;8.75;100.00
39823;BME280;25499;53.958;10.970;2023-10-09T06:29:19;101524.44;;;8.77;100.00
39823;BME280;25499;53.958;10.970;2023-10-09T06:32:02;101507.28;;;8.85;100.00
39823;BME280;25499;53.958;10.970;2023-10-09T06:34:44;101509.09;;;8.89;100.00
39823;BME280;25499;53.958;10.970;2023-10-09T06:37:13;101513.44;;;8.92;100.00
39823;BME280;25499;53.958;10.970;2023-10-09T06:40:00;101517.81;;;8.94;100.00
39823;BME280;25499;53.958;10.970;2023-10-09T06:42:56;101517.94;;;9.02;100.00
39823;BME280;25499;53.958;10.970;2023-10-09T06:45:23;101513.56;;;9.00;100.00
39823;BME280;25499;53.958;10.970;2023-10-09T06:47:58;101513.59;;;9.03;100.00
39823;BME280;25499;53.958;10.970;2023-10-09T06:50:34;101510.25;;;9.10;100.00
39823;BME280;25499;53.958;10.970;2023-10-09T06:53:17;101511.09;;;9.09;100.00
39823;BME280;25499;53.958;10.970;2023-10-09T06:55:50;101510.25;;;9.10;100.00
39823;BME280;25499;53.958;10.970;2023-10-09T06:58:17;101519.81;;;9.12;100.00
39823;BME280;25499;53.958;10.970;2023-10-09T07:00:51;101517.25;;;9.14;100.00
39823;BME280;25499;53.958;10.970;2023-10-09T07:03:20;101519.94;;;9.20;100.00
39823;BME280;25499;53.958;10.970;2023-10-09T07:06:03;101524.28;;;9.21;100.00
39823;BME280;25499;53.958;10.970;2023-10-09T07:08:36;101524.31;;;9.24;100.00
39823;BME280;25499;53.958;10.970;2023-10-09T07:11:23;101518.25;;;9.24;100.00
39823;BME280;25499;53.958;10.970;2023-10-09T07:14:04;101508.81;;;9.29;100.00
39823;BME280;25499;53.958;10.970;2023-10-09T07:16:32;101503.47;;;9.21;100.00
39823;BME280;25499;53.958;10.970;2023-10-09T07:19:03;101503.69;;;9.33;100.00
39823;BME280;25499;53.958;10.970;2023-10-09T07:21:50;101511.47;;;9.35;100.00
39823;BME280;25499;53.958;10.970;2023-10-09T07:24:21;101510.59;;;9.34;100.00
39823;BME280;25499;53.958;10.970;2023-10-09T07:26:50;101506.28;;;9.33;100.00
39823;BME280;25499;53.958;10.970;2023-10-09T07:29:19;101500.25;;;9.38;100.00
39823;BME280;25499;53.958;10.970;2023-10-09T07:31:49;101496.84;;;9.42;100.00
39823;BME280;25499;53.958;10.970;2023-10-09T07:34:23;101495.16;;;9.44;100.00
39823;BME280;25499;53.958;10.970;2023-10-09T07:37:19;101490.00;;;9.48;100.00
39823;BME280;25499;53.958;10.970;2023-10-09T07:39:50;101484.78;;;9.47;100.00
39823;BME280;25499;53.958;10.970;2023-10-09T07:42:23;101479.59;;;9.47;100.00
39823;BME280;25499;53.958;10.970;2023-10-09T07:45:04;101490.97;;;9.55;100.00
39823;BME280;25499;53.958;10.970;2023-10-09T07:47:58;101484.91;;;9.55;100.00
39823;BME280;25499;53.958;10.970;2023-10-09T07:50:28;101484.78;;;9.47;100.00
39823;BME280;25499;53.958;10.970;2023-10-09T07:53:04;101477.94;;;9.50;100.00
39823;BME280;25499;53.958;10.970;2023-10-09T07:55:45;101482.25;;;9.51;100.00
39823;BME280;25499;53.958;10.970;2023-10-09T07:58:20;101486.63;;;9.54;100.00
39823;BME280;25499;53.958;10.970;2023-10-09T08:00:52;101484.78;;;9.47;100.00
39823;BME280;25499;53.958;10.970;2023-10-09T08:03:42;101492.75;;;9.58;100.00
39823;BME280;25499;53.958;10.970;2023-10-09T08:06:11;101488.44;;;9.61;100.00
39823;BME280;25499;53.958;10.970;2023-10-09T08:08:56;101486.59;;;9.52;100.00
39823;BME280;25499;53.958;10.970;2023-10-09T08:11:38;101489.34;;;9.63;100.00
39823;BME280;25499;53.958;10.970;2023-10-09T08:14:25;101486.72;;;9.62;100.00
39823;BME280;25499;53.958;10.970;2023-10-09T08:17:11;101492.69;;;9.55;100.00
39823;BME280;25499;53.958;10.970;2023-10-09T08:19:42;101500.53;;;9.56;100.00
39823;BME280;25499;53.958;10.970;2023-10-09T08:22:27;101494.63;;;9.69;100.00
39823;BME280;25499;53.958;10.970;2023-10-09T08:25:08;101503.44;;;9.82;100.00
39823;BME280;25499;53.958;10.970;2023-10-09T08:27:53;101493.84;;;9.77;100.00
39823;BME280;25499;53.958;10.970;2023-10-09T08:30:25;101492.19;;;9.83;100.00
39823;BME280;25499;53.958;10.970;2023-10-09T08:32:54;101488.78;;;9.89;100.00
39823;BME280;25499;53.958;10.970;2023-10-09T08:35:28;101491.38;;;9.89;100.00
39823;BME280;25499;53.958;10.970;2023-10-09T08:37:55;101487.06;;;9.91;100.00
39823;BME280;25499;53.958;10.970;2023-10-09T08:40:29;101489.69;;;9.93;100.00
39823;BME280;25499;53.958;10.970;2023-10-09T08:43:08;101479.34;;;9.99;100.00
39823;BME280;25499;53.958;10.970;2023-10-09T08:45:37;101477.63;;;10.01;100.00
39823;BME280;25499;53.958;10.970;2023-10-09T08:48:07;101482.06;;;10.06;100.00
39823;BME280;25499;53.958;10.970;2023-10-09T08:50:38;101487.31;;;10.13;100.00
39823;BME280;25499;53.958;10.970;2023-10-09T08:53:05;101495.06;;;10.08;100.00
39823;BME280;25499;53.958;10.970;2023-10-09T08:55:32;101483.75;;;10.04;100.00
39823;BME280;25499;53.958;10.970;2023-10-09T08:58:01;101491.53;;;10.04;100.00
39823;BME280;25499;53.958;10.970;2023-10-09T09:00:32;101488.94;;;10.01;100.00
39823;BME280;25499;53.958;10.970;2023-10-09T09:02:59;101481.00;;;9.92;100.00
39823;BME280;25499;53.958;10.970;2023-10-09T09:05:27;101484.56;;;9.99;100.00
39823;BME280;25499;53.958;10.970;2023-10-09T09:07:55;101486.28;;;9.97;100.00
39823;BME280;25499;53.958;10.970;2023-10-09T09:10:28;101489.81;;;10.03;100.00
39823;BME280;25499;53.958;10.970;2023-10-09T09:13:02;101493.38;;;10.10;100.00
39823;BME280;25499;53.958;10.970;2023-10-09T09:15:30;101495.97;;;10.13;100.00
39823;BME280;25499;53.958;10.970;2023-10-09T09:18:03;101490.03;;;10.25;100.00
39823;BME280;25499;53.958;10.970;2023-10-09T09:20:32;101491.81;;;10.29;100.00
39823;BME280;25499;53.958;10.970;2023-10-09T09:23:03;101485.81;;;10.33;100.00
39823;BME280;25499;53.958;10.970;2023-10-09T09:25:41;101487.63;;;10.40;100.00
39823;BME280;25499;53.958;10.970;2023-10-09T09:28:12;101485.94;;;10.45;100.00
39823;BME280;25499;53.958;10.970;2023-10-09T09:30:45;101486.69;;;10.32;100.00
39823;BME280;25499;53.958;10.970;2023-10-09T09:33:20;101485.88;;;10.39;100.00
39823;BME280;25499;53.958;10.970;2023-10-09T09:35:59;101478.91;;;10.35;100.00
39823;BME280;25499;53.958;10.970;2023-10-09T09:38:28;101475.44;;;10.36;100.00
39823;BME280;25499;53.958;10.970;2023-10-09T09:41:01;101471.09;;;10.34;100.00
39823;BME280;25499;53.958;10.970;2023-10-09T09:43:34;101465.91;;;10.35;100.00
39823;BME280;25499;53.958;10.970;2023-10-09T09:46:06;101472.16;;;10.56;100.00
39823;BME280;25499;53.958;10.970;2023-10-09T09:48:38;101472.91;;;10.47;100.00
39823;BME280;25499;53.958;10.970;2023-10-09T09:51:11;101472.94;;;10.49;100.00
39823;BME280;25499;53.958;10.970;2023-10-09T09:53:40;101473.84;;;10.51;100.00
39823;BME280;25499;53.958;10.970;2023-10-09T09:56:08;101476.47;;;10.52;100.00
39823;BME280;25499;53.958;10.970;2023-10-09T09:58:46;101479.81;;;10.43;100.00
39823;BME280;25499;53.958;10.970;2023-10-09T10:01:20;101475.22;;;10.18;100.00
39823;BME280;25499;53.958;10.970;2023-10-09T10:03:54;101470.16;;;10.32;100.00
39823;BME280;25499;53.958;10.970;2023-10-09T10:06:24;101463.19;;;10.29;100.00
39823;BME280;25499;53.958;10.970;2023-10-09T10:08:52;101471.94;;;10.34;100.00
39823;BME280;25499;53.958;10.970;2023-10-09T10:11:41;101468.41;;;10.29;100.00
39823;BME280;25499;53.958;10.970;2023-10-09T10:14:11;101459.69;;;10.25;100.00
39823;BME280;25499;53.958;10.970;2023-10-09T10:17:03;101450.09;;;10.23;100.00
39823;BME280;25499;53.958;10.970;2023-10-09T10:20:04;101455.34;;;10.26;100.00
39823;BME280;25499;53.958;10.970;2023-10-09T10:22:48;101461.56;;;10.37;100.00
39823;BME280;25499;53.958;10.970;2023-10-09T10:25:33;101447.56;;;10.29;100.00
39823;BME280;25499;53.958;10.970;2023-10-09T10:28:20;101454.63;;;10.38;100.00
39823;BME280;25499;53.958;10.970;2023-10-09T10:31:05;101465.16;;;10.52;100.00
39823;BME280;25499;53.958;10.970;2023-10-09T10:34:03;101459.94;;;10.50;100.00
39823;BME280;25499;53.958;10.970;2023-10-09T10:36:32;101459.03;;;10.47;100.00
39823;BME280;25499;53.958;10.970;2023-10-09T10:39:00;101446.06;;;10.50;100.00
39823;BME280;25499;53.958;10.970;2023-10-09T10:41:35;101448.72;;;10.57;100.00
39823;BME280;25499;53.958;10.970;2023-10-09T10:44:25;101443.53;;;10.60;100.00
39823;BME280;25499;53.958;10.970;2023-10-09T10:47:04;101448.84;;;10.73;100.00
39823;BME280;25499;53.958;10.970;2023-10-09T10:49:31;101455.75;;;10.71;100.00
39823;BME280;25499;53.958;10.970;2023-10-09T10:52:03;101461.81;;;10.68;100.00
39823;BME280;25499;53.958;10.970;2023-10-09T10:54:43;101473.03;;;10.59;100.00
39823;BME280;25499;53.958;10.970;2023-10-09T10:57:20;101487.75;;;10.53;100.00
39823;BME280;25499;53.958;10.970;2023-10-09T10:59:57;101489.41;;;10.44;100.00
39823;BME280;25499;53.958;10.970;2023-10-09T11:02:43;101494.59;;;10.44;100.00
39823;BME280;25499;53.958;10.970;2023-10-09T11:05:13;101493.75;;;10.45;100.00
39823;BME280;25499;53.958;10.970;2023-10-09T11:07:50;101494.66;;;10.54;100.00
39823;BME280;25499;53.958;10.970;2023-10-09T11:10:22;101487.75;;;10.53;100.00
39823;BME280;25499;53.958;10.970;2023-10-09T11:12:57;101483.34;;;10.49;100.00
39823;BME280;25499;53.958;10.970;2023-10-09T11:15:41;101495.53;;;10.53;100.00
39823;BME280;25499;53.958;10.970;2023-10-09T11:18:14;101491.19;;;10.52;100.00
39823;BME280;25499;53.958;10.970;2023-10-09T11:20:48;101493.91;;;10.62;100.00
39823;BME280;25499;53.958;10.970;2023-10-09T11:23:44;101486.06;;;10.61;100.00
39823;BME280;25499;53.958;10.970;2023-10-09T11:26:24;101478.25;;;10.64;100.00
39823;BME280;25499;53.958;10.970;2023-10-09T11:29:10;101462.66;;;10.62;100.00
39823;BME280;25499;53.958;10.970;2023-10-09T11:31:42;101470.47;;;10.67;100.00
39823;BME280;25499;53.958;10.970;2023-10-09T11:34:21;101463.56;;;10.66;100.00
39823;BME280;25499;53.958;10.970;2023-10-09T11:36:59;101462.63;;;10.59;100.00
39823;BME280;25499;53.958;10.970;2023-10-09T11:39:27;101457.44;;;10.64;100.00
39823;BME280;25499;53.958;10.970;2023-10-09T11:42:18;101454.84;;;10.66;100.00
39823;BME280;25499;53.958;10.970;2023-10-09T11:45:01;101454.88;;;10.67;100.00
39823;BME280;25499;53.958;10.970;2023-10-09T11:47:46;101460.03;;;10.61;100.00
39823;BME280;25499;53.958;10.970;2023-10-09T11:50:41;101472.22;;;10.65;100.00
39823;BME280;25499;53.958;10.970;2023-10-09T11:53:19;101460.91;;;10.61;100.00
39823;BME280;25499;53.958;10.970;2023-10-09T11:55:59;101460.94;;;10.64;100.00
39823;BME280;25499;53.958;10.970;2023-10-09T11:58:26;101460.09;;;10.70;100.00
39823;BME280;25499;53.958;10.970;2023-10-09T12:00:54;101457.50;;;10.72;100.00
39823;BME280;25499;53.958;10.970;2023-10-09T12:03:25;101448.84;;;10.71;100.00
39823;BME280;25499;53.958;10.970;2023-10-09T12:05:57;101454.06;;;10.77;100.00
39823;BME280;25499;53.958;10.970;2023-10-09T12:08:30;101446.34;;;10.87;100.00
39823;BME280;25499;53.958;10.970;2023-10-09T12:10:57;101459.34;;;10.85;100.00
39823;BME280;25499;53.958;10.970;2023-10-09T12:13:25;101461.06;;;10.81;100.00
39823;BME280;25499;53.958;10.970;2023-10-09T12:15:52;101464.50;;;10.79;100.00
39823;BME280;25499;53.958;10.970;2023-10-09T12:18:20;101461.09;;;10.85;100.00
39823;BME280;25499;53.958;10.970;2023-10-09T12:20:49;101471.47;;;10.81;100.00
39823;BME280;25499;53.958;10.970;2023-10-09T12:23:29;101466.28;;;10.81;100.00
39823;BME280;25499;53.958;10.970;2023-10-09T12:26:01;101465.38;;;10.76;100.00
39823;BME280;25499;53.958;10.970;2023-10-09T12:28:28;101465.34;;;10.75;100.00
39823;BME280;25499;53.958;10.970;2023-10-09T12:30:58;101460.13;;;10.72;100.00
39823;BME280;25499;53.958;10.970;2023-10-09T12:33:28;101455.78;;;10.74;100.00
39823;BME280;25499;53.958;10.970;2023-10-09T12:35:56;101456.69;;;10.80;100.00
39823;BME280;25499;53.958;10.970;2023-10-09T12:38:25;101440.19;;;10.77;100.00
39823;BME280;25499;53.958;10.970;2023-10-09T12:41:02;101430.72;;;10.90;100.00
39823;BME280;25499;53.958;10.970;2023-10-09T12:43:34;101439.44;;;10.92;100.00
39823;BME280;25499;53.958;10.970;2023-10-09T12:46:05;101434.25;;;10.96;100.00
39823;BME280;25499;53.958;10.970;2023-10-09T12:48:32;101441.19;;;10.99;100.00
39823;BME280;25499;53.958;10.970;2023-10-09T12:50:59;101432.50;;;10.97;100.00
39823;BME280;25499;53.958;10.970;2023-10-09T12:53:32;101428.19;;;11.02;100.00
39823;BME280;25499;53.958;10.970;2023-10-09T12:55:59;101423.81;;;10.95;100.00
39823;BME280;25499;53.958;10.970;2023-10-09T12:58:27;101428.22;;;11.05;100.00
39823;BME280;25499;53.958;10.970;2023-10-09T13:00:54;101426.44;;;11.02;100.00
39823;BME280;25499;53.958;10.970;2023-10-09T13:03:22;101429.03;;;11.01;100.00
39823;BME280;25499;53.958;10.970;2023-10-09T13:05:53;101429.94;;;11.05;100.00
39823;BME280;25499;53.958;10.970;2023-10-09T13:08:22;101427.28;;;10.97;100.00
39823;BME280;25499;53.958;10.970;2023-10-09T13:10:51;101433.38;;;10.99;100.00
39823;BME280;25499;53.958;10.970;2023-10-09T13:13:28;101433.38;;;10.97;100.00
39823;BME280;25499;53.958;10.970;2023-10-09T13:16:06;101441.19;;;10.96;100.00
39823;BME280;25499;53.958;10.970;2023-10-09T13:18:34;101433.34;;;10.93;100.00
39823;BME280;25499;53.958;10.970;2023-10-09T13:21:03;101424.66;;;10.94;100.00
39823;BME280;25499;53.958;10.970;2023-10-09T13:23:31;101427.28;;;10.94;100.00
39823;BME280;25499;53.958;10.970;2023-10-09T13:26:05;101424.63;;;10.89;100.00
39823;BME280;25499;53.958;10.970;2023-10-09T13:28:45;101421.19;;;10.90;100.00
39823;BME280;25499;53.958;10.970;2023-10-09T13:31:13;101422.91;;;10.93;100.00
39823;BME280;25499;53.958;10.970;2023-10-09T13:33:41;101419.41;;;10.89;100.00
39823;BME280;25499;53.958;10.970;2023-10-09T13:36:08;101422.00;;;10.86;100.00
39823;BME280;25499;53.958;10.970;2023-10-09T13:38:42;101418.53;;;10.86;100.00
39823;BME280;25499;53.958;10.970;2023-10-09T13:41:09;101417.69;;;10.88;100.00
39823;BME280;25499;53.958;10.970;2023-10-09T13:43:38;101416.81;;;10.88;100.00
39823;BME280;25499;53.958;10.970;2023-10-09T13:46:08;101424.59;;;10.86;100.00
39823;BME280;25499;53.958;10.970;2023-10-09T13:48:37;101414.19;;;10.83;100.00
39823;BME280;25499;53.958;10.970;2023-10-09T13:51:07;101414.19;;;10.85;100.00
39823;BME280;25499;53.958;10.970;2023-10-09T13:53:40;101423.75;;;10.89;100.00
39823;BME280;25499;53.958;10.970;2023-10-09T13:56:11;101418.50;;;10.82;100.00
39823;BME280;25499;53.958;10.970;2023-10-09T13:58:40;101425.53;;;10.94;100.00
39823;BME280;25499;53.958;10.970;2023-10-09T14:01:10;101417.72;;;10.96;100.00
39823;BME280;25499;53.958;10.970;2023-10-09T14:03:37;101420.34;;;10.99;100.00
39823;BME280;25499;53.958;10.970;2023-10-09T14:06:05;101429.03;;;10.96;100.00
39823;BME280;25499;53.958;10.970;2023-10-09T14:08:38;101432.47;;;10.92;100.00
39823;BME280;25499;53.958;10.970;2023-10-09T14:11:07;101433.34;;;10.90;100.00
39823;BME280;25499;53.958;10.970;2023-10-09T14:13:39;101436.78;;;10.89;100.00
39823;BME280;25499;53.958;10.970;2023-10-09T14:16:06;101439.38;;;10.86;100.00
39823;BME280;25499;53.958;10.970;2023-10-09T14:18:47;101434.16;;;10.84;100.00
39823;BME280;25499;53.958;10.970;2023-10-09T14:21:19;101441.13;;;10.87;100.00
39823;BME280;25499;53.958;10.970;2023-10-09T14:23:47;101443.72;;;10.85;100.00
39823;BME280;25499;53.958;10.970;2023-10-09T14:26:14;101444.56;;;10.82;100.00
39823;BME280;25499;53.958;10.970;2023-10-09T14:28:44;101441.94;;;10.82;100.00
39823;BME280;25499;53.958;10.970;2023-10-09T14:31:11;101448.88;;;10.79;100.00
39823;BME280;25499;53.958;10.970;2023-10-09T14:33:40;101460.16;;;10.76;100.00
39823;BME280;25499;53.958;10.970;2023-10-09T14:36:10;101460.16;;;10.76;100.00
39823;BME280;25499;53.958;10.970;2023-10-09T14:38:40;101464.47;;;10.76;100.00
39823;BME280;25499;53.958;10.970;2023-10-09T14:41:08;101468.78;;;10.72;100.00
39823;BME280;25499;53.958;10.970;2023-10-09T14:43:37;101473.16;;;10.73;100.00
39823;BME280;25499;53.958;10.970;2023-10-09T14:46:04;101481.78;;;10.71;100.00
39823;BME280;25499;53.958;10.970;2023-10-09T14:48:37;101473.97;;;10.69;100.00
39823;BME280;25499;53.958;10.970;2023-10-09T14:51:04;101473.13;;;10.72;100.00
39823;BME280;25499;53.958;10.970;2023-10-09T14:53:33;101473.09;;;10.67;100.00
39823;BME280;25499;53.958;10.970;2023-10-09T14:56:01;101469.63;;;10.67;100.00
39823;BME280;25499;53.958;10.970;2023-10-09T14:58:29;101472.25;;;10.68;100.00
39823;BME280;25499;53.958;10.970;2023-10-09T15:01:07;101470.47;;;10.67;100.00
39823;BME280;25499;53.958;10.970;2023-10-09T15:03:38;101467.00;;;10.65;100.00
39823;BME280;25499;53.958;10.970;2023-10-09T15:06:05;101462.66;;;10.62;100.00
39823;BME280;25499;53.958;10.970;2023-10-09T15:08:37;101467.00;;;10.65;100.00
39823;BME280;25499;53.958;10.970;2023-10-09T15:11:06;101460.94;;;10.66;100.00
39823;BME280;25499;53.958;10.970;2023-10-09T15:13:34;101454.88;;;10.67;100.00
39823;BME280;25499;53.958;10.970;2023-10-09T15:16:05;101446.09;;;10.59;100.00
39823;BME280;25499;53.958;10.970;2023-10-09T15:18:32;101439.22;;;10.61;100.00
39823;BME280;25499;53.958;10.970;2023-10-09T15:20:59;101438.31;;;10.62;100.00
39823;BME280;25499;53.958;10.970;2023-10-09T15:23:26;101444.41;;;10.61;100.00
39823;BME280;25499;53.958;10.970;2023-10-09T15:25:56;101448.78;;;10.65;100.00
39823;BME280;25499;53.958;10.970;2023-10-09T15:28:22;101447.00;;;10.64;100.00
39823;BME280;25499;53.958;10.970;2023-10-09T15:30:50;101456.56;;;10.62;100.00
39823;BME280;25499;53.958;10.970;2023-10-09T15:33:17;101454.84;;;10.61;100.00
39823;BME280;25499;53.958;10.970;2023-10-09T15:35:44;101459.16;;;10.62;100.00
39823;BME280;25499;53.958;10.970;2023-10-09T15:38:12;101480.88;;;10.64;100.00
39823;BME280;25499;53.958;10.970;2023-10-09T15:40:40;101480.84;;;10.58;100.00
39823;BME280;25499;53.958;10.970;2023-10-09T15:43:10;101479.94;;;10.54;100.00
39823;BME280;25499;53.958;10.970;2023-10-09T15:45:43;101493.81;;;10.55;100.00
39823;BME280;25499;53.958;10.970;2023-10-09T15:48:13;101498.19;;;10.56;100.00
39823;BME280;25499;53.958;10.970;2023-10-09T15:50:45;101498.19;;;10.59;100.00
39823;BME280;25499;53.958;10.970;2023-10-09T15:53:14;101506.00;;;10.57;100.00
39823;BME280;25499;53.958;10.970;2023-10-09T15:55:43;101499.03;;;10.55;100.00
39823;BME280;25499;53.958;10.970;2023-10-09T15:58:11;101502.47;;;10.54;100.00
39823;BME280;25499;53.958;10.970;2023-10-09T16:00:38;101512.09;;;10.58;100.00
39823;BME280;25499;53.958;10.970;2023-10-09T16:03:05;101508.63;;;10.57;100.00
39823;BME280;25499;53.958;10.970;2023-10-09T16:05:35;101516.44;;;10.57;100.00
39823;BME280;25499;53.958;10.970;2023-10-09T16:08:02;101515.53;;;10.57;100.00
39823;BME280;25499;53.958;10.970;2023-10-09T16:10:30;101518.13;;;10.55;100.00
39823;BME280;25499;53.958;10.970;2023-10-09T16:12:57;101511.22;;;10.56;100.00
39823;BME280;25499;53.958;10.970;2023-10-09T16:15:27;101521.59;;;10.54;100.00
39823;BME280;25499;53.958;10.970;2023-10-09T16:17:54;101520.72;;;10.55;100.00
39823;BME280;25499;53.958;10.970;2023-10-09T16:20:28;101525.94;;;10.57;100.00
39823;BME280;25499;53.958;10.970;2023-10-09T16:22:57;101526.81;;;10.56;100.00
39823;BME280;25499;53.958;10.970;2023-10-09T16:25:25;101530.25;;;10.53;100.00
39823;BME280;25499;53.958;10.970;2023-10-09T16:27:52;101536.34;;;10.55;100.00
39823;BME280;25499;53.958;10.970;2023-10-09T16:30:21;101540.78;;;10.62;100.00
39823;BME280;25499;53.958;10.970;2023-10-09T16:32:50;101550.28;;;10.57;100.00
39823;BME280;25499;53.958;10.970;2023-10-09T16:35:17;101543.28;;;10.55;100.00
39823;BME280;25499;53.958;10.970;2023-10-09T16:37:47;101547.63;;;10.54;100.00
39823;BME280;25499;53.958;10.970;2023-10-09T16:40:15;101555.47;;;10.59;100.00
39823;BME280;25499;53.958;10.970;2023-10-09T16:42:45;101552.00;;;10.57;100.00
39823;BME280;25499;53.958;10.970;2023-10-09T16:45:15;101553.72;;;10.56;100.00
39823;BME280;25499;53.958;10.970;2023-10-09T16:47:44;101545.94;;;10.58;100.00
39823;BME280;25499;53.958;10.970;2023-10-09T16:50:14;101543.31;;;10.56;100.00
39823;BME280;25499;53.958;10.970;2023-10-09T16:52:42;101554.59;;;10.57;100.00
39823;BME280;25499;53.958;10.970;2023-10-09T16:55:10;101557.16;;;10.52;100.00
39823;BME280;25499;53.958;10.970;2023-10-09T16:57:37;101553.69;;;10.52;100.00
39823;BME280;25499;53.958;10.970;2023-10-09T17:00:08;101550.19;;;10.50;100.00
39823;BME280;25499;53.958;10.970;2023-10-09T17:02:43;101544.13;;;10.51;100.00
39823;BME280;25499;53.958;10.970;2023-10-09T17:05:13;101550.22;;;10.53;100.00
39823;BME280;25499;53.958;10.970;2023-10-09T17:07:41;101554.56;;;10.52;100.00
39823;BME280;25499;53.958;10.970;2023-10-09T17:10:10;101558.00;;;10.50;100.00
39823;BME280;25499;53.958;10.970;2023-10-09T17:12:42;101562.38;;;10.52;100.00
39823;BME280;25499;53.958;10.970;2023-10-09T17:15:12;101562.38;;;10.54;100.00
39823;BME280;25499;53.958;10.970;2023-10-09T17:17:44;101569.28;;;10.52;100.00
39823;BME280;25499;53.958;10.970;2023-10-09T17:20:16;101573.66;;;10.53;100.00
39823;BME280;25499;53.958;10.970;2023-10-09T17:22:44;101569.28;;;10.52;100.00
39823;BME280;25499;53.958;10.970;2023-10-09T17:25:12;101572.78;;;10.54;100.00
39823;BME280;25499;53.958;10.970;2023-10-09T17:27:39;101569.28;;;10.52;100.00
39823;BME280;25499;53.958;10.970;2023-10-09T17:30:08;101569.31;;;10.53;100.00
39823;BME280;25499;53.958;10.970;2023-10-09T17:32:35;101566.66;;;10.49;100.00
39823;BME280;25499;53.958;10.970;2023-10-09T17:35:03;101571.00;;;10.50;100.00
39823;BME280;25499;53.958;10.970;2023-10-09T17:37:36;101559.75;;;10.51;100.00
39823;BME280;25499;53.958;10.970;2023-10-09T17:40:05;101571.06;;;10.53;100.00
39823;BME280;25499;53.958;10.970;2023-10-09T17:42:33;101568.44;;;10.53;100.00
39823;BME280;25499;53.958;10.970;2023-10-09T17:45:01;101570.19;;;10.52;100.00
39823;BME280;25499;53.958;10.970;2023-10-09T17:47:31;101581.47;;;10.53;100.00
39823;BME280;25499;53.958;10.970;2023-10-09T17:50:01;101577.09;;;10.52;100.00
39823;BME280;25499;53.958;10.970;2023-10-09T17:52:28;101577.13;;;10.53;100.00
39823;BME280;25499;53.958;10.970;2023-10-09T17:54:56;101583.19;;;10.54;100.00
39823;BME280;25499;53.958;10.970;2023-10-09T17:57:26;101587.56;;;10.55;100.00
39823;BME280;25499;53.958;10.970;2023-10-09T17:59:53;101581.47;;;10.53;100.00
39823;BME280;25499;53.958;10.970;2023-10-09T18:02:21;101587.56;;;10.55;100.00
39823;BME280;25499;53.958;10.970;2023-10-09T18:04:48;101591.06;;;10.58;100.00
39823;BME280;25499;53.958;10.970;2023-10-09T18:07:15;101588.44;;;10.57;100.00
39823;BME280;25499;53.958;10.970;2023-10-09T18:09:45;101597.13;;;10.56;100.00
39823;BME280;25499;53.958;10.970;2023-10-09T18:12:19;101600.56;;;10.55;100.00
39823;BME280;25499;53.958;10.970;2023-10-09T18:14:47;101607.53;;;10.56;100.00
39823;BME280;25499;53.958;10.970;2023-10-09T18:17:17;101609.28;;;10.57;100.00
39823;BME280;25499;53.958;10.970;2023-10-09T18:19:45;101607.56;;;10.59;100.00
39823;BME280;25499;53.958;10.970;2023-10-09T18:22:13;101600.66;;;10.61;100.00
39823;BME280;25499;53.958;10.970;2023-10-09T18:24:40;101601.47;;;10.57;100.00
39823;BME280;25499;53.958;10.970;2023-10-09T18:27:08;101602.34;;;10.56;100.00
39823;BME280;25499;53.958;10.970;2023-10-09T18:29:38;101607.53;;;10.56;100.00
39823;BME280;25499;53.958;10.970;2023-10-09T18:32:05;101605.81;;;10.56;100.00
39823;BME280;25499;53.958;10.970;2023-10-09T18:34:32;101611.91;;;10.60;100.00
39823;BME280;25499;53.958;10.970;2023-10-09T18:36:59;101602.41;;;10.65;100.00
39823;BME280;25499;53.958;10.970;2023-10-09T18:39:26;101597.13;;;10.59;100.00
39823;BME280;25499;53.958;10.970;2023-10-09T18:41:56;101599.72;;;10.56;100.00
39823;BME280;25499;53.958;10.970;2023-10-09T18:44:23;101599.72;;;10.56;100.00
39823;BME280;25499;53.958;10.970;2023-10-09T18:46:51;101611.03;;;10.58;100.00
39823;BME280;25499;53.958;10.970;2023-10-09T18:49:19;101613.69;;;10.64;100.00
39823;BME280;25499;53.958;10.970;2023-10-09T18:51:46;101616.28;;;10.64;100.00
39823;BME280;25499;53.958;10.970;2023-10-09T18:54:13;101608.47;;;10.61;100.00
39823;BME280;25499;53.958;10.970;2023-10-09T18:56:40;101603.19;;;10.56;100.00
39823;BME280;25499;53.958;10.970;2023-10-09T18:59:08;101612.75;;;10.59;100.00
39823;BME280;25499;53.958;10.970;2023-10-09T19:01:35;101612.78;;;10.60;100.00
39823;BME280;25499;53.958;10.970;2023-10-09T19:04:04;101607.56;;;10.60;100.00